createdAt,value
2023-01-25T00:01:45.881Z,98845.59
2023-01-25T00:04:12.540Z,98843.22
2023-01-25T00:06:39.223Z,98844.09
2023-01-25T00:09:05.838Z,98844.91
2023-01-25T00:11:32.744Z,98849.69
2023-01-25T00:13:59.575Z,98847.50
2023-01-25T00:16:26.383Z,98843.88
2023-01-25T00:18:53.248Z,98842.72
2023-01-25T00:21:19.884Z,98832.97
2023-01-25T00:23:46.607Z,98846.91
2023-01-25T00:26:13.320Z,98845.75
2023-01-25T00:28:40.027Z,98842.75
2023-01-25T00:31:06.660Z,98844.22
2023-01-25T00:33:33.407Z,98839.38
2023-01-25T00:36:00.061Z,98845.09
2023-01-25T00:38:26.715Z,98837.66
2023-01-25T00:40:53.374Z,98834.69
2023-01-25T00:43:20.055Z,98844.47
2023-01-25T00:45:46.744Z,98846.38
2023-01-25T00:48:13.372Z,98846.03
2023-01-25T00:50:40.046Z,98845.63
2023-01-25T00:53:06.712Z,98849.31
2023-01-25T00:55:33.404Z,98851.94
2023-01-25T00:58:00.125Z,98850.63
2023-01-25T01:00:26.800Z,98855.38
2023-01-25T01:02:53.416Z,98859.44
2023-01-25T01:05:20.125Z,98862.06
2023-01-25T01:07:46.774Z,98857.22
2023-01-25T01:10:13.387Z,98863.28
2023-01-25T01:12:40.088Z,98862.44
2023-01-25T01:15:06.886Z,98863.84
2023-01-25T01:17:33.728Z,98851.88
2023-01-25T01:20:00.400Z,98847.88
2023-01-25T01:22:27.059Z,98856.28
2023-01-25T01:24:54.714Z,98855.09
2023-01-25T01:27:21.348Z,98857.72
2023-01-25T01:29:47.992Z,98856.66
2023-01-25T01:32:14.805Z,98858.88
2023-01-25T01:34:41.557Z,98857.81
2023-01-25T01:37:08.235Z,98858.66
2023-01-25T01:39:34.948Z,98855.09
2023-01-25T01:42:01.582Z,98859.75
2023-01-25T01:44:28.252Z,98854.38
2023-01-25T01:46:54.909Z,98863.16
2023-01-25T01:49:21.586Z,98859.75
2023-01-25T01:51:48.222Z,98864.47
2023-01-25T01:54:14.838Z,98868.03
2023-01-25T01:56:41.503Z,98862.47
2023-01-25T01:59:08.180Z,98867.09
2023-01-25T02:01:34.973Z,98868.50
2023-01-25T02:09:31.013Z,98862.56
2023-01-25T02:11:57.667Z,98854.97
2023-01-25T02:14:24.322Z,98851.88
2023-01-25T02:16:50.950Z,98854.88
2023-01-25T02:19:17.600Z,98845.50
2023-01-25T02:21:44.316Z,98841.09
2023-01-25T02:24:11.033Z,98848.94
2023-01-25T02:26:37.753Z,98848.44
2023-01-25T02:29:04.431Z,98843.59
2023-01-25T02:31:31.207Z,98843.47
2023-01-25T02:33:57.939Z,98839.09
2023-01-25T02:36:24.652Z,98838.38
2023-01-25T02:38:51.291Z,98842.03
2023-01-25T02:41:17.937Z,98833.88
2023-01-25T02:43:44.616Z,98837.41
2023-01-25T02:46:11.250Z,98830.31
2023-01-25T02:48:37.944Z,98828.06
2023-01-25T02:51:04.587Z,98822.00
2023-01-25T02:53:31.185Z,98829.84
2023-01-25T02:55:58.821Z,98825.00
2023-01-25T02:58:25.488Z,98826.06
2023-01-25T03:00:52.150Z,98819.63
2023-01-25T03:03:18.895Z,98815.47
2023-01-25T03:05:45.568Z,98816.66
2023-01-25T03:08:12.280Z,98815.06
2023-01-25T03:10:38.889Z,98806.09
2023-01-25T03:13:05.532Z,98806.56
2023-01-25T03:15:32.184Z,98812.94
2023-01-25T03:17:58.820Z,98810.25
2023-01-25T03:20:25.470Z,98801.03
2023-01-25T03:22:52.093Z,98801.03
2023-01-25T03:25:18.687Z,98806.13
2023-01-25T03:27:45.275Z,98809.44
2023-01-25T03:30:11.973Z,98807.56
2023-01-25T03:32:38.617Z,98795.81
2023-01-25T03:35:05.287Z,98800.69
2023-01-25T03:37:31.963Z,98795.34
2023-01-25T03:39:58.653Z,98793.69
2023-01-25T03:42:25.302Z,98790.84
2023-01-25T03:44:51.941Z,98783.72
2023-01-25T03:47:18.613Z,98786.81
2023-01-25T03:49:45.269Z,98786.44
2023-01-25T03:52:11.933Z,98788.72
2023-01-25T03:54:38.655Z,98785.97
2023-01-25T03:57:05.375Z,98780.75
2023-01-25T03:59:32.059Z,98783.97
2023-01-25T04:01:58.723Z,98792.41
2023-01-25T04:04:25.438Z,98779.34
2023-01-25T04:06:52.095Z,98783.63
2023-01-25T04:09:18.761Z,98776.28
2023-01-25T04:11:45.432Z,98772.22
2023-01-25T04:14:12.075Z,98771.78
2023-01-25T04:16:38.739Z,98767.63
2023-01-25T04:19:05.428Z,98767.00
2023-01-25T04:21:32.128Z,98768.34
2023-01-25T04:23:58.854Z,98766.56
2023-01-25T04:26:25.522Z,98768.69
2023-01-25T04:28:52.181Z,98754.59
2023-01-25T04:31:18.981Z,98759.88
2023-01-25T04:33:45.698Z,98759.88
2023-01-25T04:36:12.535Z,98754.81
2023-01-25T04:38:39.268Z,98756.00
2023-01-25T04:41:05.933Z,98759.78
2023-01-25T04:43:32.676Z,98755.63
2023-01-25T04:45:59.416Z,98757.28
2023-01-25T04:48:26.119Z,98761.44
2023-01-25T04:50:52.759Z,98764.41
2023-01-25T04:53:19.404Z,98762.75
2023-01-25T04:55:46.056Z,98755.13
2023-01-25T04:58:12.695Z,98759.72
2023-01-25T05:00:39.355Z,98759.38
2023-01-25T05:03:06.160Z,98767.22
2023-01-25T05:05:32.809Z,98768.28
2023-01-25T05:07:59.516Z,98769.34
2023-01-25T05:10:26.225Z,98772.22
2023-01-25T05:12:52.933Z,98774.47
2023-01-25T05:15:19.560Z,98775.53
2023-01-25T05:17:46.268Z,98771.25
2023-01-25T05:20:12.929Z,98766.53
2023-01-25T05:22:39.613Z,98758.59
2023-01-25T05:25:06.318Z,98766.28
2023-01-25T05:27:33.033Z,98762.50
2023-01-25T05:29:59.715Z,98763.47
2023-01-25T05:32:26.435Z,98764.66
2023-01-25T05:34:53.128Z,98757.06
2023-01-25T05:37:19.818Z,98755.75
2023-01-25T05:39:46.446Z,98759.31
2023-01-25T05:42:13.091Z,98767.00
2023-01-25T05:44:39.787Z,98762.75
2023-01-25T05:47:06.445Z,98761.78
2023-01-25T05:49:33.126Z,98771.28
2023-01-25T05:51:59.771Z,98766.66
2023-01-25T05:54:26.473Z,98778.88
2023-01-25T05:56:53.100Z,98771.97
2023-01-25T05:59:19.737Z,98775.19
2023-01-25T06:01:46.432Z,98777.91
2023-01-25T06:04:13.160Z,98793.81
2023-01-25T06:06:39.860Z,98791.19
2023-01-25T06:09:06.497Z,98797.13
2023-01-25T06:11:33.194Z,98791.53
2023-01-25T06:13:59.802Z,98799.97
2023-01-25T06:16:26.558Z,98796.66
2023-01-25T06:18:53.254Z,98796.91
2023-01-25T06:21:19.929Z,98801.97
2023-01-25T06:23:46.635Z,98800.44
2023-01-25T06:26:13.327Z,98808.50
2023-01-25T06:28:40.016Z,98802.94
2023-01-25T06:31:06.771Z,98808.72
2023-01-25T06:33:33.637Z,98807.53
2023-01-25T06:36:00.291Z,98817.75
2023-01-25T06:38:27.247Z,98810.03
2023-01-25T06:40:53.934Z,98816.06
2023-01-25T06:43:20.586Z,98817.38
2023-01-25T06:45:47.300Z,98825.78
2023-01-25T06:48:13.913Z,98826.66
2023-01-25T06:50:40.611Z,98823.19
2023-01-25T06:53:07.228Z,98820.94
2023-01-25T06:55:33.870Z,98816.31
2023-01-25T06:58:00.566Z,98813.78
2023-01-25T07:00:27.243Z,98816.19
2023-01-25T07:02:53.889Z,98817.72
2023-01-25T07:05:20.545Z,98816.78
2023-01-25T07:07:47.284Z,98816.63
2023-01-25T07:10:13.925Z,98812.97
2023-01-25T07:12:40.563Z,98813.78
2023-01-25T07:15:07.744Z,98801.72
2023-01-25T07:17:34.728Z,98798.03
2023-01-25T07:20:01.346Z,98803.50
2023-01-25T07:22:27.990Z,98798.53
2023-01-25T07:24:54.639Z,98793.91
2023-01-25T07:27:21.873Z,98787.13
2023-01-25T07:29:48.540Z,98788.09
2023-01-25T07:32:15.235Z,98779.75
2023-01-25T07:34:41.860Z,98776.75
2023-01-25T07:37:08.547Z,98778.31
2023-01-25T07:39:35.178Z,98769.38
2023-01-25T07:42:01.851Z,98771.75
2023-01-25T07:44:28.530Z,98759.25
2023-01-25T07:46:55.170Z,98762.78
2023-01-25T07:49:21.839Z,98768.72
2023-01-25T07:51:48.522Z,98760.19
2023-01-25T07:54:15.225Z,98766.53
2023-01-25T07:56:41.894Z,98766.03
2023-01-25T07:59:08.628Z,98764.91
2023-01-25T08:01:35.297Z,98761.41
2023-01-25T08:04:02.079Z,98760.25
2023-01-25T08:06:28.733Z,98770.97
2023-01-25T08:08:55.388Z,98759.44
2023-01-25T08:11:22.114Z,98764.41
2023-01-25T08:13:48.749Z,98755.22
2023-01-25T08:16:15.357Z,98762.03
2023-01-25T08:18:42.002Z,98754.59
2023-01-25T08:21:08.636Z,98766.13
2023-01-25T08:23:35.331Z,98764.53
2023-01-25T08:26:01.977Z,98764.22
2023-01-25T08:28:28.655Z,98769.56
2023-01-25T08:30:57.460Z,98778.69
2023-01-25T08:33:24.372Z,98772.28
2023-01-25T08:35:51.186Z,98774.06
2023-01-25T08:38:17.821Z,98779.31
2023-01-25T08:40:44.498Z,98774.53
2023-01-25T08:43:11.139Z,98781.34
2023-01-25T08:45:37.785Z,98774.75
2023-01-25T08:48:04.471Z,98775.88
2023-01-25T08:50:31.155Z,98774.53
2023-01-25T08:52:57.920Z,98773.31
2023-01-25T08:55:24.738Z,98767.34
2023-01-25T08:57:51.416Z,98763.19
2023-01-25T09:00:18.053Z,98767.34
2023-01-25T09:02:44.709Z,98766.44
2023-01-25T09:05:11.370Z,98762.50
2023-01-25T09:07:38.006Z,98766.34
2023-01-25T09:10:04.722Z,98768.69
2023-01-25T09:12:31.443Z,98759.56
2023-01-25T09:15:00.851Z,98764.16
2023-01-25T09:17:29.920Z,98763.00
2023-01-25T09:22:40.882Z,98769.19
2023-01-25T09:25:07.578Z,98766.72
2023-01-25T09:27:34.232Z,98759.00
2023-01-25T09:30:03.084Z,98755.56
2023-01-25T09:32:30.135Z,98758.00
2023-01-25T09:34:57.206Z,98749.97
2023-01-25T09:37:24.053Z,98742.22
2023-01-25T09:39:50.778Z,98746.53
2023-01-25T09:42:18.212Z,98739.66
2023-01-25T09:44:45.745Z,98735.44
2023-01-25T09:47:12.584Z,98732.75
2023-01-25T09:49:39.261Z,98736.72
2023-01-25T09:52:06.229Z,98736.75
2023-01-25T09:54:42.260Z,98727.31
2023-01-25T09:57:13.108Z,98722.44
2023-01-25T09:59:39.989Z,98728.38
2023-01-25T10:02:07.271Z,98723.19
2023-01-25T10:04:34.141Z,98721.63
2023-01-25T10:07:01.798Z,98718.22
2023-01-25T10:09:28.827Z,98709.22
2023-01-25T10:11:55.625Z,98709.22
2023-01-25T10:14:22.424Z,98704.53
2023-01-25T10:16:49.179Z,98706.91
2023-01-25T10:19:16.341Z,98695.66
2023-01-25T10:21:43.002Z,98694.88
2023-01-25T10:24:09.939Z,98692.72
2023-01-25T10:26:37.019Z,98689.19
2023-01-25T10:29:03.823Z,98683.97
2023-01-25T10:31:30.656Z,98681.63
2023-01-25T10:33:57.625Z,98674.75
2023-01-25T10:36:24.504Z,98666.34
2023-01-25T10:38:51.173Z,98655.19
2023-01-25T10:41:17.986Z,98655.56
2023-01-25T10:43:45.138Z,98654.47
2023-01-25T10:46:11.953Z,98659.50
2023-01-25T10:48:38.760Z,98655.53
2023-01-25T10:51:05.679Z,98661.00
2023-01-25T10:53:32.494Z,98658.25
2023-01-25T10:55:59.298Z,98655.56
2023-01-25T10:58:26.061Z,98648.81
2023-01-25T11:00:52.824Z,98649.38
2023-01-25T11:03:19.647Z,98635.59
2023-01-25T11:05:47.254Z,98631.19
2023-01-25T11:08:13.938Z,98628.44
2023-01-25T11:10:40.913Z,98621.13
2023-01-25T11:13:07.725Z,98620.16
2023-01-25T11:15:34.501Z,98612.44
2023-01-25T11:18:01.248Z,98618.63
2023-01-25T11:20:27.965Z,98607.34
2023-01-25T11:22:54.811Z,98611.56
2023-01-25T11:25:21.973Z,98608.38
2023-01-25T11:27:48.731Z,98597.16
2023-01-25T11:30:15.939Z,98594.72
2023-01-25T11:32:42.747Z,98593.16
2023-01-25T11:35:09.389Z,98580.78
2023-01-25T11:37:36.284Z,98588.47
2023-01-25T11:40:03.367Z,98576.47
2023-01-25T11:42:30.064Z,98580.72
2023-01-25T11:44:56.873Z,98562.00
2023-01-25T11:47:23.591Z,98560.28
2023-01-25T11:49:50.393Z,98563.31
2023-01-25T11:52:17.210Z,98549.34
2023-01-25T11:54:43.988Z,98553.78
2023-01-25T11:57:10.650Z,98551.31
2023-01-25T11:59:38.041Z,98545.13
2023-01-25T12:02:04.746Z,98537.13
2023-01-25T12:04:31.517Z,98530.53
2023-01-25T12:06:58.277Z,98533.69
2023-01-25T12:09:25.239Z,98532.13
2023-01-25T12:11:52.013Z,98529.72
2023-01-25T12:14:18.779Z,98528.03
2023-01-25T12:16:45.732Z,98534.75
2023-01-25T12:19:12.514Z,98517.44
2023-01-25T12:21:39.186Z,98519.94
2023-01-25T12:24:08.079Z,98516.34
2023-01-25T12:26:34.791Z,98511.94
2023-01-25T12:29:01.496Z,98506.19
2023-01-25T12:31:28.377Z,98500.78
2023-01-25T12:33:55.310Z,98500.41
2023-01-25T12:36:22.043Z,98498.50
2023-01-25T12:38:48.740Z,98488.84
2023-01-25T12:41:15.633Z,98485.59
2023-01-25T12:43:42.545Z,98477.03
2023-01-25T12:46:09.289Z,98474.41
2023-01-25T12:48:36.143Z,98475.34
2023-01-25T12:51:02.818Z,98470.88
2023-01-25T12:53:29.544Z,98472.59
2023-01-25T12:55:56.388Z,98467.94
2023-01-25T12:58:32.875Z,98459.06
2023-01-25T13:01:04.011Z,98463.63
2023-01-25T13:03:31.034Z,98449.09
2023-01-25T13:05:57.708Z,98450.66
2023-01-25T13:08:31.870Z,98451.97
2023-01-25T13:10:59.281Z,98444.22
2023-01-25T13:13:26.045Z,98444.22
2023-01-25T13:15:52.893Z,98440.97
2023-01-25T13:18:19.643Z,98446.59
2023-01-25T13:20:46.736Z,98434.84
2023-01-25T13:23:13.440Z,98442.81
2023-01-25T13:25:40.133Z,98442.91
2023-01-25T13:28:07.089Z,98438.00
2023-01-25T13:30:34.012Z,98444.53
2023-01-25T13:33:00.830Z,98436.16
2023-01-25T13:35:27.563Z,98433.28
2023-01-25T13:37:54.414Z,98428.13
2023-01-25T13:40:21.121Z,98420.34
2023-01-25T13:42:47.872Z,98416.22
2023-01-25T13:45:14.567Z,98417.34
2023-01-25T13:47:41.329Z,98415.63
2023-01-25T13:50:08.748Z,98418.03
2023-01-25T13:52:35.801Z,98417.75
2023-01-25T13:55:02.606Z,98413.63
2023-01-25T13:57:29.713Z,98409.25
2023-01-25T14:00:02.064Z,98407.72
2023-01-25T14:02:32.151Z,98410.75
2023-01-25T14:04:59.059Z,98411.09
2023-01-25T14:07:25.968Z,98409.31
2023-01-25T14:09:52.724Z,98410.97
2023-01-25T14:12:19.408Z,98408.34
2023-01-25T14:14:46.309Z,98403.78
2023-01-25T14:17:13.178Z,98409.25
2023-01-25T14:19:39.827Z,98409.97
2023-01-25T14:22:06.544Z,98405.78
2023-01-25T14:24:33.419Z,98403.31
2023-01-25T14:27:00.684Z,98412.28
2023-01-25T14:29:34.589Z,98403.44
2023-01-25T14:32:01.370Z,98410.19
2023-01-25T14:34:28.156Z,98408.94
2023-01-25T14:36:54.870Z,98401.47
2023-01-25T14:39:21.509Z,98412.50
2023-01-25T14:42:00.514Z,98403.06
2023-01-25T14:44:28.485Z,98405.09
2023-01-25T14:46:55.466Z,98405.84
2023-01-25T14:49:22.242Z,98401.34
2023-01-25T14:51:49.057Z,98402.81
2023-01-25T14:54:15.959Z,98406.06
2023-01-25T14:56:42.731Z,98404.84
2023-01-25T14:59:10.553Z,98402.63
2023-01-25T15:01:37.287Z,98408.28
2023-01-25T15:04:04.018Z,98406.22
2023-01-25T15:06:30.694Z,98411.03
2023-01-25T15:08:58.574Z,98411.00
2023-01-25T15:11:25.415Z,98406.25
2023-01-25T15:13:52.150Z,98402.91
2023-01-25T15:16:18.871Z,98402.88
2023-01-25T15:18:46.049Z,98397.91
2023-01-25T15:21:12.911Z,98396.22
2023-01-25T15:23:39.589Z,98401.25
2023-01-25T15:26:06.605Z,98391.75
2023-01-25T15:28:33.629Z,98402.66
2023-01-25T15:31:00.426Z,98403.00
2023-01-25T15:33:27.262Z,98393.28
2023-01-25T15:35:53.992Z,98399.16
2023-01-25T15:38:20.769Z,98393.59
2023-01-25T15:40:47.504Z,98400.28
2023-01-25T15:43:14.227Z,98397.19
2023-01-25T15:45:41.191Z,98390.56
2023-01-25T15:48:07.930Z,98400.66
2023-01-25T15:50:35.707Z,98405.53
2023-01-25T15:53:02.398Z,98401.81
2023-01-25T15:55:29.186Z,98395.66
2023-01-25T15:57:55.916Z,98398.50
2023-01-25T16:00:22.729Z,98396.84
2023-01-25T16:02:49.422Z,98398.00
2023-01-25T16:05:16.123Z,98388.94
2023-01-25T16:07:42.885Z,98399.16
2023-01-25T16:10:09.764Z,98397.13
2023-01-25T16:12:36.676Z,98399.66
2023-01-25T16:15:03.374Z,98397.19
2023-01-25T16:17:30.025Z,98395.56
2023-01-25T16:19:56.734Z,98398.84
2023-01-25T16:22:23.466Z,98395.72
2023-01-25T16:24:50.207Z,98392.34
2023-01-25T16:27:16.928Z,98391.09
2023-01-25T16:29:43.581Z,98395.94
2023-01-25T16:32:10.396Z,98397.22
2023-01-25T16:34:37.447Z,98394.50
2023-01-25T16:37:04.558Z,98397.13
2023-01-25T16:39:31.738Z,98390.72
2023-01-25T16:41:58.917Z,98395.88
2023-01-25T16:44:25.636Z,98393.66
2023-01-25T16:46:52.346Z,98397.34
2023-01-25T16:49:19.413Z,98394.44
2023-01-25T16:51:46.192Z,98386.91
2023-01-25T16:54:12.898Z,98388.72
2023-01-25T16:56:39.592Z,98384.59
2023-01-25T16:59:06.350Z,98385.28
2023-01-25T17:01:33.175Z,98388.47
2023-01-25T17:03:59.932Z,98384.75
2023-01-25T17:06:26.651Z,98376.50
2023-01-25T17:08:53.372Z,98383.91
2023-01-25T17:11:20.098Z,98376.66
2023-01-25T17:13:46.797Z,98372.91
2023-01-25T17:16:13.619Z,98374.44
2023-01-25T17:18:40.479Z,98371.84
2023-01-25T17:21:07.203Z,98375.69
2023-01-25T17:23:34.065Z,98368.50
2023-01-25T17:26:00.754Z,98364.13
2023-01-25T17:28:27.407Z,98363.13
2023-01-25T17:30:54.740Z,98361.22
2023-01-25T17:33:21.596Z,98370.59
2023-01-25T17:35:48.521Z,98363.13
2023-01-25T17:38:15.200Z,98364.34
2023-01-25T17:40:41.916Z,98357.91
2023-01-25T17:43:08.674Z,98359.84
2023-01-25T17:45:36.390Z,98354.63
2023-01-25T17:48:03.087Z,98355.84
2023-01-25T17:50:29.846Z,98346.50
2023-01-25T17:52:56.467Z,98355.47
2023-01-25T17:55:23.135Z,98350.63
2023-01-25T17:57:49.843Z,98353.25
2023-01-25T18:00:16.549Z,98354.47
2023-01-25T18:02:43.257Z,98347.03
2023-01-25T18:05:09.997Z,98345.81
2023-01-25T18:07:36.742Z,98345.97
2023-01-25T18:10:03.493Z,98344.72
2023-01-25T18:12:30.241Z,98341.25
2023-01-25T18:14:56.954Z,98330.56
2023-01-25T18:17:23.654Z,98336.88
2023-01-25T18:19:50.329Z,98334.41
2023-01-25T18:22:17.034Z,98330.25
2023-01-25T18:24:43.804Z,98318.72
2023-01-25T18:27:10.497Z,98317.59
2023-01-25T18:29:37.213Z,98312.09
2023-01-25T18:32:03.959Z,98307.09
2023-01-25T18:34:30.686Z,98313.44
2023-01-25T18:36:57.380Z,98296.63
2023-01-25T18:39:24.063Z,98298.72
2023-01-25T18:41:50.786Z,98300.81
2023-01-25T18:44:17.567Z,98300.44
2023-01-25T18:46:44.421Z,98290.22
2023-01-25T18:49:11.224Z,98288.16
2023-01-25T18:51:58.851Z,98283.84
2023-01-25T18:54:24.646Z,98290.94
2023-01-25T18:56:51.337Z,98280.31
2023-01-25T18:59:18.040Z,98274.13
2023-01-25T19:01:44.835Z,98276.75
2023-01-25T19:04:11.591Z,98278.56
2023-01-25T19:06:38.359Z,98278.41
2023-01-25T19:09:05.101Z,98270.56
2023-01-25T19:11:31.801Z,98271.53
2023-01-25T19:13:58.426Z,98271.25
2023-01-25T19:16:25.173Z,98260.66
2023-01-25T19:18:51.843Z,98259.69
2023-01-25T19:21:18.507Z,98247.88
2023-01-25T19:23:45.205Z,98251.44
2023-01-25T19:26:11.915Z,98245.09
2023-01-25T19:28:38.611Z,98244.69
2023-01-25T19:31:05.414Z,98240.56
2023-01-25T19:33:32.181Z,98233.97
2023-01-25T19:35:58.908Z,98236.25
2023-01-25T19:38:25.653Z,98233.13
2023-01-25T19:40:52.399Z,98224.47
2023-01-25T19:43:19.163Z,98215.00
2023-01-25T19:45:45.826Z,98220.50
2023-01-25T19:48:12.579Z,98220.50
2023-01-25T19:50:39.376Z,98216.47
2023-01-25T19:53:05.995Z,98213.88
2023-01-25T19:55:32.719Z,98211.94
2023-01-25T19:57:59.371Z,98209.84
2023-01-25T20:00:26.114Z,98207.97
2023-01-25T20:02:52.914Z,98206.59
2023-01-25T20:05:19.635Z,98200.66
2023-01-25T20:07:46.357Z,98194.06
2023-01-25T20:10:13.291Z,98188.72
2023-01-25T20:12:39.996Z,98182.38
2023-01-25T20:15:06.660Z,98186.25
2023-01-25T20:17:33.339Z,98183.94
2023-01-25T20:19:59.994Z,98184.91
2023-01-25T20:22:26.684Z,98185.84
2023-01-25T20:24:53.422Z,98171.22
2023-01-25T20:27:20.152Z,98176.72
2023-01-25T20:29:46.828Z,98172.63
2023-01-25T20:32:30.590Z,98162.31
2023-01-25T20:34:58.415Z,98165.47
2023-01-25T20:37:25.192Z,98157.63
2023-01-25T20:39:51.863Z,98153.81
2023-01-25T20:42:18.576Z,98152.41
2023-01-25T20:44:45.295Z,98148.53
2023-01-25T20:47:11.959Z,98139.44
2023-01-25T20:49:38.669Z,98134.47
2023-01-25T20:52:05.379Z,98132.41
2023-01-25T20:54:32.054Z,98131.19
2023-01-25T20:56:58.734Z,98130.06
2023-01-25T20:59:25.539Z,98123.91
2023-01-25T21:01:52.253Z,98119.31
2023-01-25T21:04:18.996Z,98114.38
2023-01-25T21:06:45.665Z,98115.97
2023-01-25T21:09:12.361Z,98115.38
2023-01-25T21:11:39.084Z,98107.91
2023-01-25T21:14:05.828Z,98109.72
2023-01-25T21:16:32.767Z,98103.63
2023-01-25T21:18:59.496Z,98109.31
2023-01-25T21:21:26.301Z,98102.84
2023-01-25T21:23:53.082Z,98103.41
2023-01-25T21:26:19.834Z,98098.69
2023-01-25T21:28:46.549Z,98090.19
2023-01-25T21:31:13.376Z,98092.94
2023-01-25T21:33:40.168Z,98086.34
2023-01-25T21:36:06.936Z,98086.19
2023-01-25T21:38:33.756Z,98082.22
2023-01-25T21:41:00.380Z,98076.31
2023-01-25T21:43:27.160Z,98074.53
2023-01-25T21:45:53.893Z,98079.38
2023-01-25T21:48:20.617Z,98076.38
2023-01-25T21:50:47.356Z,98075.41
2023-01-25T21:53:14.067Z,98072.31
2023-01-25T21:55:40.775Z,98072.09
2023-01-25T21:58:07.495Z,98069.34
2023-01-25T22:00:34.240Z,98061.63
2023-01-25T22:03:00.870Z,98055.41
2023-01-25T22:05:27.615Z,98049.50
2023-01-25T22:07:54.311Z,98051.69
2023-01-25T22:10:21.004Z,98047.56
2023-01-25T22:12:47.688Z,98040.72
2023-01-25T22:15:14.459Z,98037.19
2023-01-25T22:17:41.246Z,98032.06
2023-01-25T22:20:08.268Z,98025.53
2023-01-25T22:22:35.096Z,98032.06
2023-01-25T22:25:01.881Z,98026.13
2023-01-25T22:27:28.574Z,98024.88
2023-01-25T22:29:55.259Z,98024.88
2023-01-25T22:32:21.970Z,98027.13
2023-01-25T22:34:48.585Z,98028.06
2023-01-25T22:37:15.338Z,98024.16
2023-01-25T22:39:42.119Z,98021.13
2023-01-25T22:42:08.829Z,98018.00
2023-01-25T22:44:35.467Z,98016.97
2023-01-25T22:47:02.276Z,98012.03
2023-01-25T22:49:28.976Z,98012.84
2023-01-25T22:51:55.624Z,98004.09
2023-01-25T22:54:22.371Z,97997.75
2023-01-25T22:56:49.059Z,97990.56
2023-01-25T22:59:15.753Z,97985.81
2023-01-25T23:01:42.517Z,97979.97
2023-01-25T23:04:09.255Z,97983.69
2023-01-25T23:06:35.963Z,97977.75
2023-01-25T23:09:02.694Z,97975.41
2023-01-25T23:11:29.354Z,97976.63
2023-01-25T23:13:56.103Z,97981.28
2023-01-25T23:16:22.733Z,97971.22
2023-01-25T23:18:49.515Z,97972.03
2023-01-25T23:21:16.359Z,97970.53
2023-01-25T23:23:43.090Z,97973.75
2023-01-25T23:26:09.854Z,97973.38
2023-01-25T23:28:37.317Z,97970.16
2023-01-25T23:31:04.122Z,97970.13
2023-01-25T23:33:30.874Z,97964.34
2023-01-25T23:35:57.555Z,97960.69
2023-01-25T23:38:24.191Z,97956.69
2023-01-25T23:40:51.073Z,97947.03
2023-01-25T23:43:17.707Z,97950.53
2023-01-25T23:45:44.489Z,97939.78
2023-01-25T23:48:11.251Z,97943.13
2023-01-25T23:50:37.995Z,97936.28
2023-01-25T23:53:04.750Z,97934.34
2023-01-25T23:55:31.425Z,97927.63
2023-01-25T23:57:58.184Z,97923.50
